NDF4028 EDDH-EDDS
Flight info
| Callsign | NDF4028 |
|---|---|
| Flight time | 1h 2m |
| Altitude | 23000 |
| Route | AMLUH2C/05 AMLUH M852 DENIX Z113 SAS/N0419F310 P605 ELNAT/N0369F230 P605 TOSTU T726 LBU DCT |
| Aircraft | A320/M-SDE3FGHIRWY/LB1 |
Departure
| Time | 2026-04-20 19:12 |
|---|---|
| Airport | Hamburg Helmut Schmidt Airport (EDDH) |
Arrival
| Time | 2026-04-20 20:15 |
|---|---|
| Airport | Stuttgart Airport (EDDS) |
| Time | Latitude | Longitude | Altitude | Speed | Heading |
|---|---|---|---|---|---|
| 2026-04-20 18:31 | 53.63206 | 10.00375 | 49 ft | 0 kts | 86° |
| 2026-04-20 18:53 | 53.63206 | 10.00372 | 48 ft | 2 kts | 86° |
| 2026-04-20 18:53 | 53.63205 | 10.00330 | 48 ft | 4 kts | 86° |
| 2026-04-20 18:54 | 53.63203 | 10.00285 | 48 ft | 4 kts | 86° |
| 2026-04-20 18:54 | 53.63202 | 10.00249 | 48 ft | 4 kts | 90° |
| 2026-04-20 18:54 | 53.63205 | 10.00205 | 48 ft | 4 kts | 117° |
| 2026-04-20 18:54 | 53.63221 | 10.00179 | 45 ft | 3 kts | 174° |
| 2026-04-20 18:55 | 53.63223 | 10.00178 | 45 ft | 0 kts | 176° |
| 2026-04-20 18:58 | 53.63208 | 10.00180 | 48 ft | 6 kts | 176° |
| 2026-04-20 18:59 | 53.63169 | 10.00185 | 45 ft | 5 kts | 175° |
| 2026-04-20 18:59 | 53.63134 | 10.00190 | 48 ft | 5 kts | 175° |
| 2026-04-20 18:59 | 53.63102 | 10.00193 | 46 ft | 6 kts | 176° |
| 2026-04-20 18:59 | 53.63044 | 10.00158 | 47 ft | 9 kts | 214° |
| 2026-04-20 19:00 | 53.62995 | 10.00103 | 48 ft | 8 kts | 213° |
| 2026-04-20 19:00 | 53.62951 | 10.00056 | 45 ft | 7 kts | 212° |
| 2026-04-20 19:00 | 53.62909 | 10.00038 | 48 ft | 6 kts | 179° |
| 2026-04-20 19:00 | 53.62872 | 10.00031 | 48 ft | 5 kts | 201° |
| 2026-04-20 19:01 | 53.62850 | 10.00010 | 45 ft | 3 kts | 217° |
| 2026-04-20 19:01 | 53.62829 | 9.99987 | 47 ft | 4 kts | 212° |
| 2026-04-20 19:01 | 53.62825 | 9.99983 | 47 ft | 0 kts | 212° |
| 2026-04-20 19:02 | 53.62804 | 9.99962 | 45 ft | 6 kts | 210° |
| 2026-04-20 19:03 | 53.62763 | 9.99924 | 46 ft | 7 kts | 209° |
| 2026-04-20 19:03 | 53.62718 | 9.99881 | 43 ft | 7 kts | 209° |
| 2026-04-20 19:03 | 53.62680 | 9.99845 | 43 ft | 6 kts | 213° |
| 2026-04-20 19:03 | 53.62643 | 9.99781 | 46 ft | 12 kts | 250° |
| 2026-04-20 19:04 | 53.62621 | 9.99605 | 44 ft | 16 kts | 259° |
| 2026-04-20 19:04 | 53.62601 | 9.99432 | 47 ft | 15 kts | 259° |
| 2026-04-20 19:04 | 53.62583 | 9.99271 | 47 ft | 14 kts | 259° |
| 2026-04-20 19:04 | 53.62565 | 9.99112 | 44 ft | 13 kts | 259° |
| 2026-04-20 19:05 | 53.62547 | 9.98964 | 44 ft | 12 kts | 259° |
| 2026-04-20 19:05 | 53.62532 | 9.98827 | 45 ft | 11 kts | 258° |
| 2026-04-20 19:05 | 53.62518 | 9.98702 | 45 ft | 10 kts | 259° |
| 2026-04-20 19:05 | 53.62504 | 9.98580 | 45 ft | 11 kts | 258° |
| 2026-04-20 19:06 | 53.62488 | 9.98446 | 47 ft | 15 kts | 259° |
| 2026-04-20 19:06 | 53.62466 | 9.98253 | 47 ft | 17 kts | 257° |
| 2026-04-20 19:06 | 53.62422 | 9.98080 | 46 ft | 15 kts | 238° |
| 2026-04-20 19:06 | 53.62358 | 9.97944 | 47 ft | 14 kts | 230° |
| 2026-04-20 19:07 | 53.62297 | 9.97820 | 47 ft | 13 kts | 229° |
| 2026-04-20 19:07 | 53.62240 | 9.97706 | 47 ft | 12 kts | 230° |
| 2026-04-20 19:07 | 53.62189 | 9.97598 | 47 ft | 11 kts | 238° |
| 2026-04-20 19:07 | 53.62180 | 9.97481 | 47 ft | 10 kts | 284° |
| 2026-04-20 19:08 | 53.62202 | 9.97421 | 43 ft | 0 kts | 312° |
| 2026-04-20 19:10 | 53.62216 | 9.97398 | 42 ft | 12 kts | 319° |
| 2026-04-20 19:10 | 53.62318 | 9.97377 | 40 ft | 14 kts | 28° |
| 2026-04-20 19:11 | 53.62343 | 9.97417 | 39 ft | 0 kts | 50° |
| 2026-04-20 19:11 | 53.62343 | 9.97419 | 39 ft | 1 kts | 50° |
| 2026-04-20 19:11 | 53.62390 | 9.97511 | 40 ft | 38 kts | 50° |
| 2026-04-20 19:12 | 53.62720 | 9.98178 | 43 ft | 108 kts | 50° |
| 2026-04-20 19:12 | 53.63297 | 9.99350 | 313 ft | 134 kts | 51° |
| 2026-04-20 19:12 | 53.63884 | 10.00565 | 1150 ft | 131 kts | 51° |
| 2026-04-20 19:12 | 53.64455 | 10.01725 | 1908 ft | 131 kts | 55° |
| 2026-04-20 19:13 | 53.65075 | 10.02995 | 2401 ft | 151 kts | 55° |
| 2026-04-20 19:13 | 53.65790 | 10.04466 | 2780 ft | 173 kts | 54° |
| 2026-04-20 19:13 | 53.66615 | 10.06157 | 3222 ft | 193 kts | 54° |
| 2026-04-20 19:13 | 53.67472 | 10.07904 | 4036 ft | 198 kts | 52° |
| 2026-04-20 19:14 | 53.68363 | 10.09717 | 4787 ft | 204 kts | 53° |
| 2026-04-20 19:14 | 53.69271 | 10.11561 | 4993 ft | 204 kts | 52° |
| 2026-04-20 19:14 | 53.70047 | 10.13534 | 5031 ft | 202 kts | 69° |
| 2026-04-20 19:14 | 53.70288 | 10.15842 | 5035 ft | 202 kts | 92° |
| 2026-04-20 19:15 | 53.69933 | 10.18145 | 5045 ft | 214 kts | 114° |
| 2026-04-20 19:15 | 53.68887 | 10.20224 | 5037 ft | 249 kts | 141° |
| 2026-04-20 19:15 | 53.67200 | 10.21332 | 5400 ft | 270 kts | 162° |
| 2026-04-20 19:15 | 53.65390 | 10.22106 | 6527 ft | 268 kts | 161° |
| 2026-04-20 19:16 | 53.63578 | 10.22913 | 7493 ft | 271 kts | 160° |
| 2026-04-20 19:16 | 53.61747 | 10.23748 | 8431 ft | 274 kts | 160° |
| 2026-04-20 19:16 | 53.59891 | 10.24599 | 9351 ft | 278 kts | 160° |
| 2026-04-20 19:16 | 53.58003 | 10.25463 | 10023 ft | 285 kts | 160° |
| 2026-04-20 19:17 | 53.56089 | 10.26334 | 10219 ft | 285 kts | 160° |
| 2026-04-20 19:17 | 53.54084 | 10.27249 | 10270 ft | 313 kts | 161° |
| 2026-04-20 19:17 | 53.51941 | 10.28225 | 10266 ft | 322 kts | 161° |
| 2026-04-20 19:17 | 53.49768 | 10.29203 | 10259 ft | 324 kts | 161° |
| 2026-04-20 19:18 | 53.47583 | 10.30179 | 10259 ft | 325 kts | 161° |
| 2026-04-20 19:18 | 53.45398 | 10.31151 | 10257 ft | 325 kts | 161° |
| 2026-04-20 19:18 | 53.43213 | 10.32124 | 10247 ft | 325 kts | 161° |
| 2026-04-20 19:18 | 53.41030 | 10.33095 | 10251 ft | 325 kts | 161° |
| 2026-04-20 19:19 | 53.38848 | 10.34069 | 10227 ft | 325 kts | 161° |
| 2026-04-20 19:19 | 53.36688 | 10.35040 | 10230 ft | 325 kts | 161° |
| 2026-04-20 19:19 | 53.34506 | 10.36024 | 10231 ft | 325 kts | 161° |
| 2026-04-20 19:19 | 53.32318 | 10.37010 | 10231 ft | 325 kts | 161° |
| 2026-04-20 19:20 | 53.30132 | 10.37993 | 10233 ft | 325 kts | 161° |
| 2026-04-20 19:20 | 53.27929 | 10.38983 | 10599 ft | 332 kts | 161° |
| 2026-04-20 19:20 | 53.25694 | 10.39982 | 11547 ft | 333 kts | 161° |
| 2026-04-20 19:20 | 53.23440 | 10.40987 | 12403 ft | 337 kts | 161° |
| 2026-04-20 19:21 | 53.21157 | 10.42008 | 13226 ft | 341 kts | 161° |
| 2026-04-20 19:21 | 53.18856 | 10.43039 | 14037 ft | 345 kts | 161° |
| 2026-04-20 19:21 | 53.16527 | 10.44080 | 14732 ft | 349 kts | 162° |
| 2026-04-20 19:21 | 53.14161 | 10.45093 | 15392 ft | 354 kts | 166° |
| 2026-04-20 19:22 | 53.11687 | 10.45542 | 16062 ft | 362 kts | 177° |
| 2026-04-20 19:22 | 53.09154 | 10.45339 | 16733 ft | 367 kts | 181° |
| 2026-04-20 19:22 | 53.06588 | 10.45073 | 17419 ft | 371 kts | 181° |
| 2026-04-20 19:22 | 53.03990 | 10.44808 | 18103 ft | 375 kts | 181° |
| 2026-04-20 19:23 | 53.01365 | 10.44542 | 18723 ft | 380 kts | 181° |
| 2026-04-20 19:23 | 52.98749 | 10.44284 | 19287 ft | 383 kts | 181° |
| 2026-04-20 19:23 | 52.96043 | 10.44024 | 19882 ft | 386 kts | 181° |
| 2026-04-20 19:23 | 52.93383 | 10.43767 | 20464 ft | 389 kts | 181° |
| 2026-04-20 19:24 | 52.90668 | 10.43499 | 21042 ft | 393 kts | 181° |
| 2026-04-20 19:24 | 52.87930 | 10.43225 | 21603 ft | 396 kts | 181° |
| 2026-04-20 19:24 | 52.85171 | 10.42949 | 22158 ft | 399 kts | 181° |
| 2026-04-20 19:24 | 52.82389 | 10.42677 | 22712 ft | 402 kts | 180° |
| 2026-04-20 19:25 | 52.79584 | 10.42402 | 23119 ft | 405 kts | 180° |
| 2026-04-20 19:25 | 52.76788 | 10.42126 | 23196 ft | 398 kts | 181° |
| 2026-04-20 19:25 | 52.74046 | 10.41814 | 23197 ft | 394 kts | 185° |
| 2026-04-20 19:25 | 52.71358 | 10.40892 | 23198 ft | 396 kts | 195° |
| 2026-04-20 19:26 | 52.68809 | 10.39172 | 23194 ft | 397 kts | 206° |
| 2026-04-20 19:26 | 52.66476 | 10.36716 | 23193 ft | 399 kts | 215° |
| 2026-04-20 19:26 | 52.64229 | 10.34041 | 23201 ft | 399 kts | 214° |
| 2026-04-20 19:26 | 52.61978 | 10.31382 | 23194 ft | 399 kts | 214° |
| 2026-04-20 19:27 | 52.59685 | 10.28740 | 23240 ft | 409 kts | 210° |
| 2026-04-20 19:27 | 52.57060 | 10.26845 | 23385 ft | 418 kts | 194° |
| 2026-04-20 19:27 | 52.54216 | 10.25559 | 23538 ft | 430 kts | 194° |
| 2026-04-20 19:27 | 52.51295 | 10.24282 | 23729 ft | 439 kts | 193° |
| 2026-04-20 19:28 | 52.48321 | 10.23004 | 24115 ft | 441 kts | 193° |
| 2026-04-20 19:28 | 52.45351 | 10.21732 | 24619 ft | 441 kts | 193° |
| 2026-04-20 19:28 | 52.42388 | 10.20458 | 25145 ft | 440 kts | 193° |
| 2026-04-20 19:28 | 52.39432 | 10.19188 | 25681 ft | 438 kts | 193° |
| 2026-04-20 19:29 | 52.36485 | 10.17921 | 26217 ft | 437 kts | 193° |
| 2026-04-20 19:29 | 52.33547 | 10.16650 | 26768 ft | 436 kts | 193° |
| 2026-04-20 19:29 | 52.30618 | 10.15381 | 27316 ft | 435 kts | 194° |
| 2026-04-20 19:29 | 52.27695 | 10.14121 | 27864 ft | 434 kts | 194° |
| 2026-04-20 19:30 | 52.24814 | 10.12883 | 28424 ft | 432 kts | 194° |
| 2026-04-20 19:30 | 52.21908 | 10.11633 | 28983 ft | 431 kts | 194° |
| 2026-04-20 19:30 | 52.19011 | 10.10387 | 29546 ft | 430 kts | 194° |
| 2026-04-20 19:30 | 52.16120 | 10.09149 | 30109 ft | 428 kts | 194° |
| 2026-04-20 19:31 | 52.13239 | 10.07918 | 30593 ft | 427 kts | 194° |
| 2026-04-20 19:31 | 52.10361 | 10.06693 | 31029 ft | 427 kts | 194° |
| 2026-04-20 19:31 | 52.07483 | 10.05468 | 31178 ft | 426 kts | 194° |
| 2026-04-20 19:32 | 52.01759 | 10.03043 | 31201 ft | 424 kts | 194° |
| 2026-04-20 19:32 | 51.96044 | 10.00617 | 31201 ft | 424 kts | 194° |
| 2026-04-20 19:33 | 51.90329 | 9.98189 | 31195 ft | 424 kts | 194° |
| 2026-04-20 19:33 | 51.84617 | 9.95775 | 31198 ft | 424 kts | 195° |
| 2026-04-20 19:34 | 51.78915 | 9.93372 | 31194 ft | 423 kts | 195° |
| 2026-04-20 19:34 | 51.73219 | 9.90982 | 31189 ft | 422 kts | 195° |
| 2026-04-20 19:35 | 51.67563 | 9.88618 | 31183 ft | 422 kts | 195° |
| 2026-04-20 19:35 | 51.61874 | 9.86237 | 31185 ft | 422 kts | 195° |
| 2026-04-20 19:36 | 51.56195 | 9.83862 | 31182 ft | 421 kts | 195° |
| 2026-04-20 19:36 | 51.50515 | 9.81496 | 31179 ft | 421 kts | 194° |
| 2026-04-20 19:37 | 51.44843 | 9.79149 | 31174 ft | 421 kts | 194° |
| 2026-04-20 19:37 | 51.39172 | 9.76811 | 31173 ft | 421 kts | 195° |
| 2026-04-20 19:38 | 51.33501 | 9.74462 | 31167 ft | 421 kts | 194° |
| 2026-04-20 19:38 | 51.27853 | 9.72139 | 31159 ft | 421 kts | 194° |
| 2026-04-20 19:39 | 51.22178 | 9.69832 | 31158 ft | 421 kts | 192° |
| 2026-04-20 19:39 | 51.16344 | 9.69221 | 31153 ft | 421 kts | 178° |
| 2026-04-20 19:40 | 51.10479 | 9.69418 | 31148 ft | 422 kts | 179° |
| 2026-04-20 19:40 | 51.04598 | 9.69596 | 31142 ft | 423 kts | 179° |
| 2026-04-20 19:41 | 50.98705 | 9.69785 | 31154 ft | 423 kts | 179° |
| 2026-04-20 19:41 | 50.92808 | 9.69972 | 31154 ft | 424 kts | 180° |
| 2026-04-20 19:42 | 50.86912 | 9.70149 | 31152 ft | 424 kts | 179° |
| 2026-04-20 19:42 | 50.81022 | 9.70613 | 31154 ft | 423 kts | 176° |
| 2026-04-20 19:43 | 50.75142 | 9.71326 | 31155 ft | 424 kts | 176° |
| 2026-04-20 19:43 | 50.69258 | 9.72014 | 31149 ft | 424 kts | 176° |
| 2026-04-20 19:44 | 50.63369 | 9.72635 | 31147 ft | 424 kts | 177° |
| 2026-04-20 19:44 | 50.57484 | 9.73227 | 31151 ft | 424 kts | 177° |
| 2026-04-20 19:45 | 50.51600 | 9.73814 | 31142 ft | 424 kts | 177° |
| 2026-04-20 19:45 | 50.45709 | 9.74398 | 31137 ft | 424 kts | 178° |
| 2026-04-20 19:46 | 50.39809 | 9.75001 | 31036 ft | 425 kts | 178° |
| 2026-04-20 19:46 | 50.36889 | 9.75298 | 30478 ft | 426 kts | 178° |
| 2026-04-20 19:46 | 50.33931 | 9.75597 | 29802 ft | 425 kts | 178° |
| 2026-04-20 19:46 | 50.30986 | 9.75894 | 29074 ft | 423 kts | 177° |
| 2026-04-20 19:47 | 50.28056 | 9.76191 | 28359 ft | 417 kts | 177° |
| 2026-04-20 19:47 | 50.25211 | 9.76481 | 27674 ft | 403 kts | 176° |
| 2026-04-20 19:47 | 50.22439 | 9.76762 | 27005 ft | 395 kts | 177° |
| 2026-04-20 19:47 | 50.19715 | 9.77035 | 26351 ft | 389 kts | 176° |
| 2026-04-20 19:48 | 50.17937 | 9.77211 | 25924 ft | 385 kts | 176° |
| 2026-04-20 19:48 | 50.15287 | 9.77474 | 25347 ft | 378 kts | 175° |
| 2026-04-20 19:48 | 50.12665 | 9.77733 | 25145 ft | 376 kts | 175° |
| 2026-04-20 19:48 | 50.10057 | 9.77991 | 25137 ft | 375 kts | 175° |
| 2026-04-20 19:49 | 50.07449 | 9.78254 | 25022 ft | 376 kts | 175° |
| 2026-04-20 19:49 | 50.04849 | 9.78064 | 24772 ft | 375 kts | 191° |
| 2026-04-20 19:49 | 50.02316 | 9.77110 | 24530 ft | 374 kts | 193° |
| 2026-04-20 19:49 | 49.99803 | 9.76120 | 24294 ft | 372 kts | 193° |
| 2026-04-20 19:50 | 49.97303 | 9.75126 | 24055 ft | 370 kts | 193° |
| 2026-04-20 19:50 | 49.94809 | 9.74131 | 23818 ft | 369 kts | 193° |
| 2026-04-20 19:50 | 49.92332 | 9.73145 | 23557 ft | 367 kts | 193° |
| 2026-04-20 19:50 | 49.89860 | 9.72166 | 23270 ft | 365 kts | 193° |
| 2026-04-20 19:51 | 49.87401 | 9.71196 | 22987 ft | 364 kts | 193° |
| 2026-04-20 19:51 | 49.84950 | 9.70231 | 22709 ft | 363 kts | 193° |
| 2026-04-20 19:51 | 49.82505 | 9.69270 | 22432 ft | 362 kts | 193° |
| 2026-04-20 19:51 | 49.80069 | 9.68311 | 22160 ft | 360 kts | 193° |
| 2026-04-20 19:52 | 49.77651 | 9.67357 | 22299 ft | 360 kts | 194° |
| 2026-04-20 19:52 | 49.75207 | 9.66393 | 21942 ft | 365 kts | 194° |
| 2026-04-20 19:52 | 49.72751 | 9.65429 | 21424 ft | 363 kts | 194° |
| 2026-04-20 19:52 | 49.70314 | 9.64477 | 20957 ft | 360 kts | 194° |
| 2026-04-20 19:53 | 49.67901 | 9.63535 | 20496 ft | 357 kts | 194° |
| 2026-04-20 19:53 | 49.65497 | 9.62595 | 20024 ft | 355 kts | 194° |
| 2026-04-20 19:53 | 49.63112 | 9.61664 | 19575 ft | 353 kts | 195° |
| 2026-04-20 19:53 | 49.60734 | 9.60737 | 19118 ft | 351 kts | 195° |
| 2026-04-20 19:54 | 49.58367 | 9.59814 | 18670 ft | 350 kts | 195° |
| 2026-04-20 19:54 | 49.56013 | 9.58894 | 18181 ft | 348 kts | 195° |
| 2026-04-20 19:54 | 49.53704 | 9.57992 | 17741 ft | 345 kts | 195° |
| 2026-04-20 19:54 | 49.51386 | 9.57090 | 17302 ft | 342 kts | 195° |
| 2026-04-20 19:55 | 49.49088 | 9.56198 | 16875 ft | 340 kts | 195° |
| 2026-04-20 19:55 | 49.46802 | 9.55312 | 16443 ft | 338 kts | 195° |
| 2026-04-20 19:55 | 49.44532 | 9.54436 | 16015 ft | 336 kts | 195° |
| 2026-04-20 19:55 | 49.42271 | 9.53562 | 15602 ft | 334 kts | 196° |
| 2026-04-20 19:56 | 49.40021 | 9.52690 | 15183 ft | 333 kts | 196° |
| 2026-04-20 19:56 | 49.37778 | 9.51821 | 14761 ft | 332 kts | 196° |
| 2026-04-20 19:56 | 49.35540 | 9.50955 | 14342 ft | 331 kts | 196° |
| 2026-04-20 19:56 | 49.33306 | 9.50092 | 13912 ft | 330 kts | 197° |
| 2026-04-20 19:57 | 49.31085 | 9.49233 | 13459 ft | 328 kts | 197° |
| 2026-04-20 19:57 | 49.28874 | 9.48383 | 13036 ft | 326 kts | 197° |
| 2026-04-20 19:57 | 49.26684 | 9.47543 | 12609 ft | 323 kts | 197° |
| 2026-04-20 19:57 | 49.24513 | 9.46711 | 12205 ft | 321 kts | 197° |
| 2026-04-20 19:58 | 49.22374 | 9.45888 | 12089 ft | 313 kts | 197° |
| 2026-04-20 19:58 | 49.20264 | 9.45075 | 12120 ft | 312 kts | 197° |
| 2026-04-20 19:58 | 49.18160 | 9.44264 | 12121 ft | 312 kts | 197° |
| 2026-04-20 19:58 | 49.16055 | 9.43454 | 12121 ft | 312 kts | 197° |
| 2026-04-20 19:59 | 49.13964 | 9.42652 | 12112 ft | 305 kts | 197° |
| 2026-04-20 19:59 | 49.11932 | 9.41881 | 12115 ft | 298 kts | 198° |
| 2026-04-20 19:59 | 49.09931 | 9.41120 | 12116 ft | 296 kts | 198° |
| 2026-04-20 19:59 | 49.07932 | 9.40356 | 12115 ft | 296 kts | 198° |
| 2026-04-20 20:00 | 49.05936 | 9.39590 | 12112 ft | 296 kts | 198° |
| 2026-04-20 20:00 | 49.03949 | 9.38828 | 12109 ft | 290 kts | 198° |
| 2026-04-20 20:00 | 49.02034 | 9.38104 | 12109 ft | 276 kts | 198° |
| 2026-04-20 20:00 | 49.00211 | 9.37417 | 12097 ft | 263 kts | 198° |
| 2026-04-20 20:01 | 48.98502 | 9.36769 | 12098 ft | 250 kts | 198° |
| 2026-04-20 20:01 | 48.96833 | 9.36135 | 12098 ft | 245 kts | 199° |
| 2026-04-20 20:01 | 48.95215 | 9.35519 | 11998 ft | 246 kts | 199° |
| 2026-04-20 20:01 | 48.93534 | 9.34881 | 11829 ft | 242 kts | 198° |
| 2026-04-20 20:02 | 48.91899 | 9.34265 | 11761 ft | 241 kts | 199° |
| 2026-04-20 20:02 | 48.90326 | 9.33461 | 11705 ft | 235 kts | 215° |
| 2026-04-20 20:02 | 48.89103 | 9.31895 | 11649 ft | 228 kts | 236° |
| 2026-04-20 20:02 | 48.88156 | 9.29968 | 11603 ft | 228 kts | 237° |
| 2026-04-20 20:03 | 48.87211 | 9.28036 | 11550 ft | 228 kts | 237° |
| 2026-04-20 20:03 | 48.86262 | 9.26103 | 11385 ft | 228 kts | 237° |
| 2026-04-20 20:03 | 48.85313 | 9.24174 | 11112 ft | 227 kts | 237° |
| 2026-04-20 20:03 | 48.84365 | 9.22252 | 10818 ft | 227 kts | 237° |
| 2026-04-20 20:04 | 48.83420 | 9.20337 | 10517 ft | 227 kts | 237° |
| 2026-04-20 20:04 | 48.82471 | 9.18417 | 10216 ft | 228 kts | 237° |
| 2026-04-20 20:04 | 48.81511 | 9.16476 | 9894 ft | 230 kts | 236° |
| 2026-04-20 20:04 | 48.80563 | 9.14559 | 9569 ft | 230 kts | 236° |
| 2026-04-20 20:05 | 48.79603 | 9.12620 | 9255 ft | 230 kts | 236° |
| 2026-04-20 20:05 | 48.78643 | 9.10686 | 8948 ft | 229 kts | 236° |
| 2026-04-20 20:05 | 48.77681 | 9.08747 | 8644 ft | 230 kts | 236° |
| 2026-04-20 20:05 | 48.76721 | 9.06804 | 8328 ft | 230 kts | 236° |
| 2026-04-20 20:06 | 48.75760 | 9.04861 | 8016 ft | 231 kts | 236° |
| 2026-04-20 20:06 | 48.74775 | 9.02934 | 7696 ft | 232 kts | 234° |
| 2026-04-20 20:06 | 48.73753 | 9.01031 | 7391 ft | 234 kts | 233° |
| 2026-04-20 20:06 | 48.72712 | 8.99125 | 7070 ft | 235 kts | 232° |
| 2026-04-20 20:07 | 48.71667 | 8.97217 | 6751 ft | 236 kts | 232° |
| 2026-04-20 20:07 | 48.70620 | 8.95299 | 6428 ft | 237 kts | 232° |
| 2026-04-20 20:07 | 48.69570 | 8.93376 | 6085 ft | 237 kts | 232° |
| 2026-04-20 20:07 | 48.68517 | 8.91449 | 5789 ft | 237 kts | 231° |
| 2026-04-20 20:08 | 48.67487 | 8.89567 | 5712 ft | 227 kts | 230° |
| 2026-04-20 20:08 | 48.66255 | 8.88062 | 5294 ft | 231 kts | 206° |
| 2026-04-20 20:08 | 48.64772 | 8.87456 | 5090 ft | 216 kts | 175° |
| 2026-04-20 20:08 | 48.63425 | 8.88125 | 5045 ft | 201 kts | 140° |
| 2026-04-20 20:09 | 48.62596 | 8.89740 | 4996 ft | 194 kts | 107° |
| 2026-04-20 20:09 | 48.62488 | 8.91720 | 4964 ft | 189 kts | 75° |
| 2026-04-20 20:09 | 48.63059 | 8.93429 | 4936 ft | 173 kts | 49° |
| 2026-04-20 20:09 | 48.63691 | 8.94847 | 4874 ft | 154 kts | 65° |
| 2026-04-20 20:10 | 48.63993 | 8.96354 | 4765 ft | 149 kts | 71° |
| 2026-04-20 20:10 | 48.64294 | 8.97873 | 4412 ft | 152 kts | 71° |
| 2026-04-20 20:10 | 48.64599 | 8.99392 | 4139 ft | 149 kts | 71° |
| 2026-04-20 20:10 | 48.64894 | 9.00855 | 3958 ft | 143 kts | 70° |
| 2026-04-20 20:11 | 48.65175 | 9.02275 | 3780 ft | 140 kts | 71° |
| 2026-04-20 20:11 | 48.65447 | 9.03675 | 3605 ft | 137 kts | 70° |
| 2026-04-20 20:11 | 48.65709 | 9.05033 | 3435 ft | 133 kts | 70° |
| 2026-04-20 20:11 | 48.65964 | 9.06361 | 3249 ft | 131 kts | 70° |
| 2026-04-20 20:12 | 48.66218 | 9.07681 | 3061 ft | 131 kts | 70° |
| 2026-04-20 20:12 | 48.66472 | 9.09004 | 2877 ft | 131 kts | 70° |
| 2026-04-20 20:12 | 48.66726 | 9.10332 | 2682 ft | 132 kts | 71° |
| 2026-04-20 20:13 | 48.67245 | 9.13046 | 2322 ft | 135 kts | 71° |
| 2026-04-20 20:13 | 48.67504 | 9.14403 | 2135 ft | 135 kts | 71° |
| 2026-04-20 20:13 | 48.67763 | 9.15770 | 1934 ft | 135 kts | 72° |
| 2026-04-20 20:13 | 48.68011 | 9.17131 | 1780 ft | 135 kts | 72° |
| 2026-04-20 20:14 | 48.68282 | 9.18488 | 1578 ft | 135 kts | 72° |
| 2026-04-20 20:14 | 48.68537 | 9.19826 | 1413 ft | 134 kts | 72° |
| 2026-04-20 20:14 | 48.68795 | 9.21173 | 1288 ft | 132 kts | 73° |
| 2026-04-20 20:14 | 48.69040 | 9.22432 | 1230 ft | 112 kts | 73° |
| 2026-04-20 20:15 | 48.69184 | 9.23142 | 1214 ft | 32 kts | 75° |
| 2026-04-20 20:15 | 48.69214 | 9.23301 | 1211 ft | 10 kts | 74° |
| 2026-04-20 20:15 | 48.69240 | 9.23423 | 1209 ft | 17 kts | 63° |
| 2026-04-20 20:15 | 48.69286 | 9.23553 | 1206 ft | 22 kts | 60° |
| 2026-04-20 20:16 | 48.69307 | 9.23594 | 1205 ft | 0 kts | 45° |
| 2026-04-20 20:16 | 48.69331 | 9.23625 | 1204 ft | 14 kts | 40° |
| 2026-04-20 20:16 | 48.69401 | 9.23714 | 1206 ft | 12 kts | 40° |
| 2026-04-20 20:16 | 48.69412 | 9.23726 | 1206 ft | 0 kts | 33° |
| 2026-04-20 20:17 | 48.69421 | 9.23732 | 1206 ft | 4 kts | 21° |
| 2026-04-20 20:17 | 48.69438 | 9.23733 | 1207 ft | 2 kts | 6° |
| 2026-04-20 20:17 | 48.69442 | 9.23734 | 1207 ft | 0 kts | 6° |
| 2026-04-20 20:17 | 48.69448 | 9.23735 | 1207 ft | 6 kts | 6° |
| 2026-04-20 20:18 | 48.69508 | 9.23689 | 1211 ft | 10 kts | 304° |
| 2026-04-20 20:18 | 48.69515 | 9.23612 | 1213 ft | 5 kts | 257° |
| 2026-04-20 20:18 | 48.69508 | 9.23571 | 1214 ft | 4 kts | 256° |
| 2026-04-20 20:18 | 48.69492 | 9.23484 | 1216 ft | 12 kts | 255° |
| 2026-04-20 20:19 | 48.69460 | 9.23318 | 1219 ft | 17 kts | 254° |
| 2026-04-20 20:19 | 48.69430 | 9.23154 | 1222 ft | 16 kts | 253° |
| 2026-04-20 20:19 | 48.69403 | 9.23009 | 1226 ft | 13 kts | 255° |
| 2026-04-20 20:19 | 48.69381 | 9.22899 | 1228 ft | 9 kts | 253° |
| 2026-04-20 20:20 | 48.69366 | 9.22816 | 1229 ft | 11 kts | 254° |
| 2026-04-20 20:20 | 48.69334 | 9.22647 | 1233 ft | 22 kts | 254° |
| 2026-04-20 20:20 | 48.69290 | 9.22417 | 1244 ft | 23 kts | 253° |
| 2026-04-20 20:20 | 48.69248 | 9.22189 | 1255 ft | 22 kts | 256° |
| 2026-04-20 20:21 | 48.69205 | 9.21967 | 1260 ft | 22 kts | 253° |
| 2026-04-20 20:21 | 48.69163 | 9.21748 | 1259 ft | 21 kts | 253° |
| 2026-04-20 20:21 | 48.69123 | 9.21534 | 1259 ft | 21 kts | 253° |
| 2026-04-20 20:21 | 48.69083 | 9.21326 | 1263 ft | 20 kts | 253° |
| 2026-04-20 20:22 | 48.69057 | 9.21189 | 1270 ft | 20 kts | 255° |
| 2026-04-20 20:22 | 48.69006 | 9.20920 | 1273 ft | 20 kts | 253° |
| 2026-04-20 20:22 | 48.68968 | 9.20725 | 1277 ft | 18 kts | 255° |
| 2026-04-20 20:22 | 48.68994 | 9.20576 | 1282 ft | 14 kts | 315° |
| 2026-04-20 20:23 | 48.69056 | 9.20478 | 1287 ft | 12 kts | 308° |
| 2026-04-20 20:23 | 48.69054 | 9.20389 | 1291 ft | 5 kts | 254° |
| 2026-04-20 20:23 | 48.69049 | 9.20362 | 1292 ft | 1 kts | 254° |
| 2026-04-20 20:23 | 48.69034 | 9.20323 | 1293 ft | 7 kts | 210° |
| 2026-04-20 20:24 | 48.69018 | 9.20332 | 1292 ft | 3 kts | 155° |
| 2026-04-20 20:24 | 48.68987 | 9.20347 | 1291 ft | 6 kts | 163° |
| 2026-04-20 20:24 | 48.68972 | 9.20354 | 1290 ft | 0 kts | 164° |